createdAt,value
2022-08-21T00:02:21.002Z,3.30
2022-08-21T00:04:55.900Z,4.70
2022-08-21T00:07:25.417Z,2.83
2022-08-21T00:09:53.619Z,4.83
2022-08-21T00:12:23.716Z,3.97
2022-08-21T00:14:50.509Z,4.43
2022-08-21T00:17:23.902Z,3.73
2022-08-21T00:19:50.697Z,4.73
2022-08-21T00:22:18.270Z,6.30
2022-08-21T00:24:45.129Z,9.80
2022-08-21T00:27:11.947Z,4.97
2022-08-21T00:29:38.800Z,3.90
2022-08-21T00:32:05.829Z,7.53
2022-08-21T00:34:32.756Z,6.63
2022-08-21T00:36:59.579Z,7.63
2022-08-21T00:39:26.354Z,3.20
2022-08-21T00:41:53.177Z,4.77
2022-08-21T00:44:19.890Z,5.10
2022-08-21T00:46:47.599Z,6.07
2022-08-21T00:49:14.664Z,7.73
2022-08-21T00:51:56.459Z,4.47
2022-08-21T00:54:26.347Z,7.43
2022-08-21T00:57:01.083Z,6.97
2022-08-21T00:59:30.543Z,6.03
2022-08-21T01:01:57.545Z,5.57
2022-08-21T01:04:24.847Z,5.33
2022-08-21T01:06:52.534Z,8.87
2022-08-21T01:09:20.028Z,8.10
2022-08-21T01:11:47.574Z,4.77
2022-08-21T01:14:15.875Z,6.93
2022-08-21T01:16:46.299Z,6.70
2022-08-21T01:19:14.788Z,7.33
2022-08-21T01:21:42.160Z,7.47
2022-08-21T01:24:12.284Z,9.87
2022-08-21T01:26:39.337Z,8.33
2022-08-21T01:29:41.310Z,8.13
2022-08-21T01:32:16.734Z,8.13
2022-08-21T01:34:46.509Z,7.97
2022-08-21T01:37:14.110Z,9.33
2022-08-21T01:39:42.242Z,6.37
2022-08-21T01:42:10.948Z,10.70
2022-08-21T01:44:38.002Z,7.77
2022-08-21T01:47:08.615Z,8.30
2022-08-21T01:49:36.408Z,9.00
2022-08-21T01:52:04.574Z,8.50
2022-08-21T01:54:31.803Z,7.30
2022-08-21T01:57:00.178Z,9.03
2022-08-21T01:59:27.555Z,7.10
2022-08-21T02:01:58.432Z,10.37
2022-08-21T02:04:25.735Z,7.30
2022-08-21T02:06:52.906Z,6.70
2022-08-21T02:09:20.591Z,7.10
2022-08-21T02:11:47.527Z,6.50
2022-08-21T02:14:16.129Z,10.90
2022-08-21T02:17:03.389Z,8.17
2022-08-21T02:19:40.364Z,7.67
2022-08-21T02:22:10.165Z,8.70
2022-08-21T02:24:50.559Z,8.20
2022-08-21T02:27:27.235Z,7.07
2022-08-21T02:29:57.366Z,10.13
2022-08-21T02:32:24.473Z,8.83
2022-08-21T02:34:51.236Z,9.83
2022-08-21T02:37:18.127Z,6.73
2022-08-21T02:39:44.993Z,8.53
2022-08-21T02:42:11.812Z,6.90
2022-08-21T02:44:38.605Z,11.50
2022-08-21T02:47:05.573Z,7.17
2022-08-21T02:49:32.384Z,9.57
2022-08-21T02:51:59.103Z,9.73
2022-08-21T02:54:26.056Z,10.33
2022-08-21T02:56:52.912Z,7.53
2022-08-21T02:59:19.940Z,10.13
2022-08-21T03:01:46.818Z,9.00
2022-08-21T03:04:13.699Z,8.10
2022-08-21T03:06:40.448Z,9.87
2022-08-21T03:09:07.367Z,8.80
2022-08-21T03:11:34.092Z,8.13
2022-08-21T03:14:00.834Z,8.97
2022-08-21T03:16:30.944Z,9.57
2022-08-21T03:19:00.713Z,8.50
2022-08-21T03:21:27.531Z,8.43
2022-08-21T03:23:55.123Z,7.87
2022-08-21T03:26:22.312Z,8.63
2022-08-21T03:28:51.648Z,10.67
2022-08-21T03:31:18.639Z,10.27
2022-08-21T03:33:45.570Z,8.07
2022-08-21T03:36:12.432Z,8.60
2022-08-21T03:38:40.019Z,8.03
2022-08-21T03:41:08.287Z,8.73
2022-08-21T03:43:36.242Z,9.63
2022-08-21T03:46:04.401Z,10.10
2022-08-21T03:48:31.522Z,8.20
2022-08-21T03:50:58.480Z,7.37
2022-08-21T03:53:25.904Z,8.30
2022-08-21T03:55:53.626Z,8.37
2022-08-21T03:58:22.890Z,10.00
2022-08-21T04:00:52.502Z,8.20
2022-08-21T04:03:20.611Z,7.50
2022-08-21T04:05:47.508Z,9.10
2022-08-21T04:08:16.028Z,13.10
2022-08-21T04:10:44.685Z,8.53
2022-08-21T04:13:11.522Z,10.97
2022-08-21T04:15:38.564Z,8.43
2022-08-21T04:18:06.552Z,9.73
2022-08-21T04:20:34.101Z,7.27
2022-08-21T04:23:01.118Z,7.13
2022-08-21T04:25:28.237Z,9.00
2022-08-21T04:27:55.339Z,8.30
2022-08-21T04:30:28.095Z,10.37
2022-08-21T04:32:57.344Z,11.10
2022-08-21T04:35:26.559Z,9.63
2022-08-21T04:37:53.444Z,7.10
2022-08-21T04:40:22.671Z,11.90
2022-08-21T04:43:03.850Z,11.50
2022-08-21T04:45:32.172Z,7.27
2022-08-21T04:48:01.238Z,9.23
2022-08-21T04:50:37.674Z,11.97
2022-08-21T04:53:11.263Z,9.97
2022-08-21T04:55:38.881Z,9.17
2022-08-21T04:58:12.230Z,12.40
2022-08-21T05:00:39.840Z,10.80
2022-08-21T05:03:08.746Z,10.93
2022-08-21T05:05:35.975Z,10.50
2022-08-21T05:08:04.271Z,9.13
2022-08-21T05:10:32.536Z,8.23
2022-08-21T05:13:01.437Z,11.83
2022-08-21T05:15:28.379Z,8.80
2022-08-21T05:18:00.720Z,9.73
2022-08-21T05:20:28.922Z,8.37
2022-08-21T05:22:55.722Z,10.13
2022-08-21T05:25:23.810Z,8.97
2022-08-21T05:27:51.990Z,8.73
2022-08-21T05:30:20.854Z,8.13
2022-08-21T05:32:48.614Z,10.10
2022-08-21T05:35:15.830Z,9.77
2022-08-21T05:37:42.694Z,8.90
2022-08-21T05:40:22.651Z,9.63
2022-08-21T05:42:55.341Z,6.63
2022-08-21T05:45:43.115Z,9.43
2022-08-21T05:48:22.478Z,8.40
2022-08-21T05:50:51.164Z,9.57
2022-08-21T05:53:19.568Z,13.60
2022-08-21T05:55:47.494Z,6.43
2022-08-21T05:58:16.898Z,6.10
2022-08-21T06:00:44.438Z,9.53
2022-08-21T06:03:24.038Z,10.27
2022-08-21T06:05:51.018Z,11.60
2022-08-21T06:08:19.067Z,7.87
2022-08-21T06:10:47.673Z,6.77
2022-08-21T06:13:16.583Z,7.90
2022-08-21T06:15:43.634Z,9.27
2022-08-21T06:18:10.944Z,8.87
2022-08-21T06:20:38.322Z,11.67
2022-08-21T06:23:05.563Z,11.80
2022-08-21T06:25:32.759Z,6.70
2022-08-21T06:28:07.583Z,10.53
2022-08-21T06:30:37.083Z,9.83
2022-08-21T06:33:04.433Z,7.20
2022-08-21T06:35:31.413Z,12.17
2022-08-21T06:37:58.702Z,11.53
2022-08-21T06:40:27.397Z,7.43
2022-08-21T06:42:58.825Z,8.90
2022-08-21T06:45:25.857Z,10.13
2022-08-21T06:47:55.235Z,8.27
2022-08-21T06:50:22.226Z,9.13
2022-08-21T06:52:49.080Z,7.13
2022-08-21T06:55:22.344Z,7.20
2022-08-21T06:57:52.357Z,9.33
2022-08-21T07:00:20.262Z,12.43
2022-08-21T07:02:47.070Z,8.73
2022-08-21T07:05:18.192Z,9.00
2022-08-21T07:07:46.504Z,12.30
2022-08-21T07:10:21.813Z,9.10
2022-08-21T07:12:48.978Z,8.07
2022-08-21T07:15:18.074Z,14.13
2022-08-21T07:17:44.933Z,9.37
2022-08-21T07:20:11.974Z,7.00
2022-08-21T07:22:41.482Z,9.57
2022-08-21T07:25:09.650Z,7.97
2022-08-21T07:27:37.144Z,10.13
2022-08-21T07:30:05.589Z,7.37
2022-08-21T07:32:32.636Z,10.37
2022-08-21T07:34:59.715Z,11.43
2022-08-21T07:37:26.595Z,8.20
2022-08-21T07:39:53.557Z,8.13
2022-08-21T07:42:20.406Z,12.13
2022-08-21T07:44:47.257Z,7.07
2022-08-21T07:47:16.332Z,8.17
2022-08-21T07:50:03.941Z,7.53
2022-08-21T07:52:33.558Z,7.43
2022-08-21T07:55:05.858Z,7.97
2022-08-21T07:57:33.414Z,13.03
2022-08-21T08:00:00.411Z,8.17
2022-08-21T08:02:30.203Z,10.30
2022-08-21T08:05:02.110Z,9.80
2022-08-21T08:07:28.961Z,12.27
2022-08-21T08:09:55.851Z,6.37
2022-08-21T08:12:23.177Z,10.87
2022-08-21T08:14:49.997Z,13.37
2022-08-21T08:17:16.915Z,5.87
2022-08-21T08:19:43.785Z,8.10
2022-08-21T08:22:15.640Z,10.40
2022-08-21T08:24:42.586Z,6.90
2022-08-21T08:27:09.585Z,6.37
2022-08-21T08:29:36.449Z,9.60
2022-08-21T08:32:05.067Z,7.30
2022-08-21T08:34:31.877Z,8.67
2022-08-21T08:37:01.690Z,8.10
2022-08-21T08:39:29.687Z,7.37
2022-08-21T08:42:32.850Z,11.23
2022-08-21T08:45:11.587Z,7.57
2022-08-21T08:47:45.497Z,10.97
2022-08-21T08:50:14.815Z,8.80
2022-08-21T08:52:46.432Z,9.30
2022-08-21T08:55:26.605Z,8.50
2022-08-21T08:57:55.625Z,10.33
2022-08-21T09:00:24.505Z,6.80
2022-08-21T09:02:56.676Z,8.77
2022-08-21T09:05:29.724Z,7.27
2022-08-21T09:08:27.387Z,8.83
2022-08-21T09:11:14.099Z,11.93
2022-08-21T09:14:03.389Z,4.67
2022-08-21T09:16:33.307Z,7.80
2022-08-21T09:19:07.692Z,7.37
2022-08-21T09:21:44.399Z,6.03
2022-08-21T09:24:37.930Z,7.37
2022-08-21T09:27:12.902Z,4.13
2022-08-21T09:29:43.589Z,4.00
2022-08-21T09:32:20.157Z,5.87
2022-08-21T09:35:23.184Z,8.27
2022-08-21T09:38:10.599Z,6.53
2022-08-21T09:40:39.204Z,7.13
2022-08-21T09:43:19.723Z,7.63
2022-08-21T09:45:48.430Z,6.00
2022-08-21T09:48:26.441Z,5.13
2022-08-21T09:50:54.852Z,8.17
2022-08-21T09:53:26.494Z,6.30
2022-08-21T09:56:17.118Z,6.30
2022-08-21T09:58:47.976Z,4.37
2022-08-21T10:01:26.392Z,7.30
2022-08-21T10:04:09.736Z,5.67
2022-08-21T10:06:36.765Z,5.17
2022-08-21T10:09:21.469Z,6.33
2022-08-21T10:12:05.462Z,6.13
2022-08-21T10:14:54.071Z,8.50
2022-08-21T10:17:46.041Z,3.33
2022-08-21T10:20:26.282Z,5.93
2022-08-21T10:23:14.761Z,6.77
2022-08-21T10:26:05.446Z,6.20
2022-08-21T10:29:03.952Z,3.83
2022-08-21T10:31:54.343Z,4.57
2022-08-21T10:34:47.243Z,5.47
2022-08-21T10:37:20.199Z,3.83
2022-08-21T10:40:16.683Z,3.07
2022-08-21T10:43:05.295Z,4.57
2022-08-21T10:46:02.839Z,5.80
2022-08-21T10:49:05.143Z,5.03
2022-08-21T10:51:50.491Z,5.77
2022-08-21T10:54:30.439Z,2.93
2022-08-21T10:57:04.808Z,4.87
2022-08-21T10:59:58.228Z,3.60
2022-08-21T11:02:33.884Z,3.23
2022-08-21T11:05:07.999Z,1.87
2022-08-21T11:07:46.768Z,4.57
2022-08-21T11:10:28.586Z,3.93
2022-08-21T11:13:09.975Z,2.97
2022-08-21T11:15:55.249Z,2.90
2022-08-21T11:18:35.433Z,4.77
2022-08-21T11:21:43.510Z,3.43
2022-08-21T11:24:23.765Z,3.73
2022-08-21T11:27:16.091Z,4.80
2022-08-21T11:29:48.784Z,8.57
2022-08-21T11:32:40.533Z,2.57
2022-08-21T11:35:38.485Z,3.90
2022-08-21T11:38:28.919Z,4.47
2022-08-21T11:41:03.886Z,3.17
2022-08-21T11:43:52.125Z,3.20
2022-08-21T11:46:32.124Z,5.73
2022-08-21T11:49:16.858Z,3.73
2022-08-21T11:51:53.596Z,3.07
2022-08-21T11:54:45.292Z,3.27
2022-08-21T11:57:39.881Z,2.50
2022-08-21T12:00:19.953Z,4.97
2022-08-21T12:02:53.137Z,2.43
2022-08-21T12:05:40.694Z,4.23
2022-08-21T12:08:27.310Z,4.27
2022-08-21T12:11:07.553Z,5.83
2022-08-21T12:13:54.802Z,2.13
2022-08-21T12:16:33.602Z,5.50
2022-08-21T12:19:04.743Z,3.90
2022-08-21T12:21:31.830Z,2.50
2022-08-21T12:24:13.637Z,3.83
2022-08-21T12:26:52.391Z,5.07
2022-08-21T12:29:34.161Z,4.55
2022-08-21T12:32:15.752Z,4.82
2022-08-21T12:35:08.219Z,4.07
2022-08-21T12:37:46.241Z,3.30
2022-08-21T12:40:39.900Z,4.57
2022-08-21T12:43:14.161Z,3.87
2022-08-21T12:45:46.395Z,4.50
2022-08-21T12:48:39.216Z,3.50
2022-08-21T12:51:19.334Z,2.40
2022-08-21T12:53:57.911Z,2.77
2022-08-21T12:56:31.186Z,3.55
2022-08-21T12:59:04.383Z,5.33
2022-08-21T13:01:41.951Z,5.87
2022-08-21T13:04:13.924Z,3.60
2022-08-21T13:06:46.795Z,3.65
2022-08-21T13:09:16.504Z,3.72
2022-08-21T13:11:47.750Z,5.80
2022-08-21T13:14:30.001Z,4.10
2022-08-21T13:16:59.681Z,5.27
2022-08-21T13:19:27.831Z,5.90
2022-08-21T13:21:54.579Z,2.20
2022-08-21T13:27:31.072Z,3.93
2022-08-21T13:30:11.483Z,3.53
2022-08-21T13:32:43.278Z,5.13
2022-08-21T13:35:16.778Z,4.53
2022-08-21T13:37:45.646Z,5.80
2022-08-21T13:40:20.487Z,3.57
2022-08-21T13:42:49.330Z,2.93
2022-08-21T13:45:32.735Z,4.67
2022-08-21T13:48:03.193Z,4.75
2022-08-21T13:50:36.134Z,4.20
2022-08-21T13:53:06.170Z,4.13
2022-08-21T13:55:43.832Z,5.40
2022-08-21T13:58:12.712Z,3.27
2022-08-21T14:00:52.977Z,5.20
2022-08-21T14:03:52.875Z,3.60
2022-08-21T14:06:24.162Z,5.53
2022-08-21T14:08:55.176Z,5.27
2022-08-21T14:11:22.783Z,4.97
2022-08-21T14:14:02.979Z,4.87
2022-08-21T14:16:46.712Z,4.47
2022-08-21T14:19:24.007Z,2.70
2022-08-21T14:21:51.477Z,8.17
2022-08-21T14:24:24.363Z,5.45
2022-08-21T14:26:57.464Z,3.50
2022-08-21T14:29:27.169Z,5.90
2022-08-21T14:32:21.441Z,3.93
2022-08-21T14:34:48.885Z,2.83
2022-08-21T14:37:15.725Z,5.90
2022-08-21T14:39:45.248Z,4.93
2022-08-21T14:42:13.525Z,4.60
2022-08-21T14:44:40.373Z,2.77
2022-08-21T14:47:07.593Z,3.43
2022-08-21T14:49:34.355Z,2.80
2022-08-21T14:52:01.374Z,4.30
2022-08-21T14:54:32.309Z,6.93
2022-08-21T14:57:06.203Z,4.77
2022-08-21T14:59:34.116Z,3.30
2022-08-21T15:02:02.301Z,3.97
2022-08-21T15:04:29.440Z,3.37
2022-08-21T15:06:56.297Z,3.13
2022-08-21T15:09:24.868Z,6.73
2022-08-21T15:11:56.111Z,6.10
2022-08-21T15:14:26.019Z,2.67
2022-08-21T15:16:53.159Z,3.23
2022-08-21T15:19:20.208Z,2.30
2022-08-21T15:21:46.989Z,5.60
2022-08-21T15:24:13.734Z,3.43
2022-08-21T15:26:40.578Z,2.60
2022-08-21T15:29:08.949Z,4.33
2022-08-21T15:31:36.727Z,7.77
2022-08-21T15:34:04.129Z,3.20
2022-08-21T15:36:31.058Z,7.63
2022-08-21T15:38:57.806Z,7.10
2022-08-21T15:41:24.587Z,5.83
2022-08-21T15:43:53.952Z,5.10
2022-08-21T15:46:21.634Z,5.87
2022-08-21T15:48:48.958Z,4.37
2022-08-21T15:51:17.681Z,5.77
2022-08-21T15:53:45.378Z,7.03
2022-08-21T15:56:28.152Z,6.37
2022-08-21T15:59:03.298Z,7.23
2022-08-21T16:01:36.285Z,5.80
2022-08-21T16:04:16.324Z,3.07
2022-08-21T16:06:53.255Z,3.57
2022-08-21T16:09:22.744Z,4.73
2022-08-21T16:11:50.076Z,5.10
2022-08-21T16:14:17.827Z,5.33
2022-08-21T16:16:45.411Z,5.07
2022-08-21T16:19:13.576Z,6.33
2022-08-21T16:21:41.063Z,3.80
2022-08-21T16:24:07.900Z,5.00
2022-08-21T16:26:34.793Z,6.73
2022-08-21T16:29:03.178Z,5.20
2022-08-21T16:31:32.172Z,5.67
2022-08-21T16:34:00.458Z,4.23
2022-08-21T16:36:27.578Z,5.07
2022-08-21T16:38:58.724Z,4.63
2022-08-21T16:41:30.719Z,4.10
2022-08-21T16:43:57.504Z,8.30
2022-08-21T16:46:24.890Z,5.07
2022-08-21T16:48:51.736Z,3.80
2022-08-21T16:51:18.641Z,5.93
2022-08-21T16:53:45.616Z,9.37
2022-08-21T16:56:14.898Z,4.67
2022-08-21T16:58:44.521Z,6.50
2022-08-21T17:01:14.968Z,5.40
2022-08-21T17:03:46.257Z,5.03
2022-08-21T17:06:14.763Z,5.33
2022-08-21T17:08:41.736Z,5.40
2022-08-21T17:11:32.532Z,6.93
2022-08-21T17:14:05.302Z,4.60
2022-08-21T17:16:32.443Z,5.53
2022-08-21T17:18:59.173Z,4.50
2022-08-21T17:21:26.029Z,7.77
2022-08-21T17:23:52.784Z,5.07
2022-08-21T17:26:19.703Z,5.27
2022-08-21T17:28:47.250Z,4.97
2022-08-21T17:31:14.809Z,5.33
2022-08-21T17:33:50.506Z,4.93
2022-08-21T17:36:26.359Z,5.93
2022-08-21T17:38:53.814Z,4.73
2022-08-21T17:41:21.140Z,5.43
2022-08-21T17:43:49.529Z,8.47
2022-08-21T17:46:21.493Z,7.00
2022-08-21T17:48:48.283Z,7.40
2022-08-21T17:51:15.610Z,8.93
2022-08-21T17:53:42.611Z,4.27
2022-08-21T17:56:09.900Z,4.73
2022-08-21T17:58:38.269Z,7.97
2022-08-21T18:01:05.863Z,3.40
2022-08-21T18:03:37.161Z,5.23
2022-08-21T18:06:06.253Z,3.60
2022-08-21T18:08:33.869Z,5.23
2022-08-21T18:11:00.902Z,4.73
2022-08-21T18:13:31.206Z,4.40
2022-08-21T18:16:00.261Z,3.80
2022-08-21T18:18:30.104Z,3.97
2022-08-21T18:20:58.095Z,3.57
2022-08-21T18:23:43.273Z,4.70
2022-08-21T18:26:13.997Z,3.13
2022-08-21T18:28:41.569Z,9.07
2022-08-21T18:31:10.817Z,6.17
2022-08-21T18:33:39.601Z,6.17
2022-08-21T18:36:11.204Z,4.33
2022-08-21T18:38:38.177Z,4.37
2022-08-21T18:41:10.484Z,3.90
2022-08-21T18:43:37.874Z,5.43
2022-08-21T18:46:05.298Z,5.27
2022-08-21T18:48:32.743Z,4.37
2022-08-21T18:50:59.721Z,3.73
2022-08-21T18:53:29.098Z,4.80
2022-08-21T18:58:44.525Z,3.90
2022-08-21T19:01:12.157Z,7.20
2022-08-21T19:03:39.806Z,3.93
2022-08-21T19:06:09.617Z,6.30
2022-08-21T19:08:38.787Z,5.67
2022-08-21T19:11:06.664Z,4.77
2022-08-21T19:13:34.524Z,4.70
2022-08-21T19:16:05.126Z,3.07
2022-08-21T19:18:37.320Z,4.93
2022-08-21T19:21:04.364Z,3.70
2022-08-21T19:23:31.327Z,3.40
2022-08-21T19:26:06.113Z,2.90
2022-08-21T19:28:41.026Z,3.90
2022-08-21T19:31:34.002Z,5.00
2022-08-21T19:34:02.671Z,6.23
2022-08-21T19:36:30.615Z,6.63
2022-08-21T19:38:58.336Z,4.83
2022-08-21T19:41:28.291Z,5.50
2022-08-21T19:43:58.140Z,7.27
2022-08-21T19:46:28.576Z,7.10
2022-08-21T19:48:56.639Z,5.00
2022-08-21T19:51:24.576Z,4.70
2022-08-21T19:53:57.221Z,4.07
2022-08-21T19:56:27.247Z,4.83
2022-08-21T19:58:54.491Z,3.87
2022-08-21T20:01:24.024Z,4.40
2022-08-21T20:03:53.773Z,6.40
2022-08-21T20:06:24.158Z,5.73
2022-08-21T20:08:52.213Z,7.13
2022-08-21T20:11:31.535Z,8.40
2022-08-21T20:13:59.374Z,5.40
2022-08-21T20:16:28.505Z,7.40
2022-08-21T20:18:55.333Z,5.83
2022-08-21T20:21:22.148Z,5.03
2022-08-21T20:23:50.057Z,7.13
2022-08-21T20:26:18.554Z,8.20
2022-08-21T20:28:45.681Z,5.37
2022-08-21T20:31:14.589Z,7.43
2022-08-21T20:33:42.120Z,5.43
2022-08-21T20:36:09.582Z,5.33
2022-08-21T20:38:36.615Z,8.97
2022-08-21T20:41:04.181Z,6.60
2022-08-21T20:43:32.824Z,6.50
2022-08-21T20:46:00.815Z,6.23
2022-08-21T20:48:48.866Z,4.77
2022-08-21T20:51:25.225Z,4.87
2022-08-21T20:53:57.551Z,4.53
2022-08-21T20:56:31.120Z,5.47
2022-08-21T20:59:06.375Z,5.13
2022-08-21T21:01:34.354Z,6.77
2022-08-21T21:04:20.193Z,6.60
2022-08-21T21:06:50.103Z,5.70
2022-08-21T21:09:31.983Z,8.53
2022-08-21T21:12:03.173Z,5.63
2022-08-21T21:14:44.933Z,7.10
2022-08-21T21:20:25.070Z,8.23
2022-08-21T21:22:57.486Z,2.93
2022-08-21T21:25:39.856Z,6.20
2022-08-21T21:28:19.451Z,5.33
2022-08-21T21:30:51.972Z,7.80
2022-08-21T21:33:25.100Z,1.87
2022-08-21T21:35:59.017Z,2.70
2022-08-21T21:38:51.541Z,5.53
2022-08-21T21:41:49.819Z,3.83
2022-08-21T21:44:39.340Z,3.60
2022-08-21T21:47:14.668Z,5.77
2022-08-21T21:49:56.456Z,4.13
2022-08-21T21:52:54.798Z,5.10
2022-08-21T21:55:32.405Z,5.27
2022-08-21T21:58:33.389Z,7.80
2022-08-21T22:01:18.096Z,6.07
2022-08-21T22:03:55.778Z,6.77
2022-08-21T22:06:59.583Z,6.80
2022-08-21T22:09:41.127Z,5.60
2022-08-21T22:12:33.151Z,4.97
2022-08-21T22:15:08.930Z,4.37
2022-08-21T22:17:53.007Z,5.60
2022-08-21T22:20:58.701Z,4.73
2022-08-21T22:23:30.094Z,6.33
2022-08-21T22:26:04.820Z,4.23
2022-08-21T22:28:36.620Z,5.30
2022-08-21T22:31:24.983Z,5.00
2022-08-21T22:34:05.820Z,4.67
2022-08-21T22:36:37.276Z,5.20
2022-08-21T22:39:08.297Z,7.47
2022-08-21T22:41:41.199Z,5.50
2022-08-21T22:44:18.262Z,4.67
2022-08-21T22:46:55.876Z,6.93
2022-08-21T22:49:26.098Z,7.37
2022-08-21T22:52:07.339Z,7.33
2022-08-21T22:54:42.906Z,4.87
2022-08-21T22:57:33.146Z,4.73
2022-08-21T23:00:16.435Z,3.63
2022-08-21T23:02:52.282Z,6.73
2022-08-21T23:05:35.509Z,7.77
2022-08-21T23:08:25.195Z,6.50
2022-08-21T23:10:58.287Z,7.53
2022-08-21T23:13:25.217Z,3.77
2022-08-21T23:16:22.366Z,6.43
2022-08-21T23:19:15.786Z,7.87
2022-08-21T23:22:20.998Z,8.17
2022-08-21T23:24:50.526Z,5.47
2022-08-21T23:27:39.430Z,4.43
2022-08-21T23:30:10.049Z,5.57
2022-08-21T23:33:01.956Z,6.60
2022-08-21T23:36:06.852Z,6.87
2022-08-21T23:38:44.030Z,9.23
2022-08-21T23:41:34.307Z,5.27
2022-08-21T23:44:04.097Z,9.93
2022-08-21T23:46:47.256Z,8.90
2022-08-21T23:49:48.424Z,7.63
2022-08-21T23:52:36.422Z,6.17
2022-08-21T23:55:23.173Z,8.90
2022-08-21T23:58:30.871Z,10.03
